Af Michela — 5BZF3 — position and weather

sailwx.info

Track history (hours):
 
Tides and Currents Weather Stations Pressure Air Temp Water Temp Dewpoint Dewpoint Depression Visibility Wind Speed Wind Dir Waves Ship Positions

Af Michela

Last reported at 2017-Dec-12 22:02 UTC. Time now 2017-Dec-17 02:39 UTC.
Position N 44°07' E 014°01'.

Length 186 m; draft 5.9 m.

Type: Ship. MMSI: 210772000.

Date/timePositionNaut miles runAvg speedWind from/ knotsBaromVisibWave heightAir tempDewpointWater temp
2017-Dec-12 22:02N 44°07' E 014°01'121.2
2017-Dec-12 21:59N 44°08' E 014°00'1021.2
2017-Dec-12 21:30N 44°16' E 013°53'1121.0
2017-Dec-12 21:00N 44°25' E 013°44'1021.1
2017-Dec-12 20:30N 44°33' E 013°36'1020.9
2017-Dec-12 20:00N 44°42' E 013°28'1020.8
2017-Dec-12 19:31N 44°51' E 013°21'1020.5
2017-Dec-12 19:01N 44°60' E 013°13'1020.4
2017-Dec-12 18:30N 45°08' E 013°04'1020.3
2017-Dec-12 18:00N 45°18' E 013°01'918.6
2017-Dec-12 17:30N 45°26' E 013°06'1020.3
2017-Dec-12 17:01N 45°33' E 013°17'1020.3
2017-Dec-12 16:31N 45°37' E 013°30'1019.1
2017-Dec-12 16:00N 45°38' E 013°43'2 3.7
2017-Dec-12 15:25N 45°38' E 013°46'0 0.0
2017-Dec-12 14:58N 45°38' E 013°46'0 0.0
2017-Dec-12 14:28N 45°38' E 013°46'0 0.0
2017-Dec-12 13:58N 45°38' E 013°46'0 0.0
2017-Dec-12 13:28N 45°38' E 013°46'0 0.0
2017-Dec-12 12:52N 45°38' E 013°46'0 0.0
2017-Dec-12 12:19N 45°38' E 013°46'0 0.0
2017-Dec-12 11:58N 45°38' E 013°46'0 0.0
2017-Dec-12 11:28N 45°38' E 013°46'0 0.0
2017-Dec-12 10:58N 45°38' E 013°46'0 0.0
2017-Dec-12 10:25N 45°38' E 013°46'0 0.0
2017-Dec-12 09:53N 45°38' E 013°46'0 0.0
2017-Dec-12 09:29N 45°38' E 013°46'2 3.9
2017-Dec-12 09:00N 45°38' E 013°44'2 3.3
2017-Dec-12 08:30N 45°40' E 013°43'0 0.0
2017-Dec-12 08:00N 45°40' E 013°43'0 0.0
2017-Dec-12 07:30N 45°40' E 013°43'0 0.0
2017-Dec-12 07:00N 45°40' E 013°43'0 0.1
2017-Dec-12 06:30N 45°40' E 013°43'0 0.0
2017-Dec-12 06:00N 45°40' E 013°43'0 0.1
2017-Dec-12 05:30N 45°40' E 013°43'0 1.0
2017-Dec-12 05:00N 45°39' E 013°43'4 8.9
2017-Dec-12 04:30N 45°38' E 013°37'816.6
2017-Dec-12 04:00N 45°33' E 013°27'1019.8
2017-Dec-12 03:30N 45°26' E 013°17'1019.3
2017-Dec-12 03:00N 45°17' E 013°12'1121.0
2017-Dec-12 02:30N 45°07' E 013°16'1121.1
2017-Dec-12 02:00N 44°57' E 013°22'1121.2
2017-Dec-12 01:30N 44°48' E 013°30'1121.3
2017-Dec-12 01:00N 44°39' E 013°38'1121.3
2017-Dec-12 00:30N 44°30' E 013°45'1121.2
2017-Dec-12 00:00N 44°21' E 013°53'1121.3
2017-Dec-11 23:30N 44°12' E 014°02'1018.5
2017-Dec-11 22:59N 44°04' E 014°08'715.4
2017-Dec-11 22:30N 43°57' E 014°06'816.1
2017-Dec-11 22:00N 43°51' E 013°58'  
Track history (hours):
 
Tides and Currents Weather Stations Pressure Air Temp Water Temp Dewpoint Dewpoint Depression Visibility Wind Speed Wind Dir Waves Ship Positions

Af Michela

Last reported at 2017-Dec-12 22:02 UTC. Time now 2017-Dec-17 02:39 UTC.
Position N 44°07' E 014°01'.

Length 186 m; draft 5.9 m.

Type: Ship. MMSI: 210772000.

Date/timePositionNaut miles runAvg speedWind from/ knotsBaromVisibWave heightAir tempDewpointWater temp
2017-Dec-12 22:02N 44°07' E 014°01'121.2
2017-Dec-12 21:59N 44°08' E 014°00'1021.2
2017-Dec-12 21:30N 44°16' E 013°53'1121.0
2017-Dec-12 21:00N 44°25' E 013°44'1021.1
2017-Dec-12 20:30N 44°33' E 013°36'1020.9
2017-Dec-12 20:00N 44°42' E 013°28'1020.8
2017-Dec-12 19:31N 44°51' E 013°21'1020.5
2017-Dec-12 19:01N 44°60' E 013°13'1020.4
2017-Dec-12 18:30N 45°08' E 013°04'1020.3
2017-Dec-12 18:00N 45°18' E 013°01'918.6
2017-Dec-12 17:30N 45°26' E 013°06'1020.3
2017-Dec-12 17:01N 45°33' E 013°17'1020.3
2017-Dec-12 16:31N 45°37' E 013°30'1019.1
2017-Dec-12 16:00N 45°38' E 013°43'2 3.7
2017-Dec-12 15:25N 45°38' E 013°46'0 0.0
2017-Dec-12 14:58N 45°38' E 013°46'0 0.0
2017-Dec-12 14:28N 45°38' E 013°46'0 0.0
2017-Dec-12 13:58N 45°38' E 013°46'0 0.0
2017-Dec-12 13:28N 45°38' E 013°46'0 0.0
2017-Dec-12 12:52N 45°38' E 013°46'0 0.0
2017-Dec-12 12:19N 45°38' E 013°46'0 0.0
2017-Dec-12 11:58N 45°38' E 013°46'0 0.0
2017-Dec-12 11:28N 45°38' E 013°46'0 0.0
2017-Dec-12 10:58N 45°38' E 013°46'0 0.0
2017-Dec-12 10:25N 45°38' E 013°46'0 0.0
2017-Dec-12 09:53N 45°38' E 013°46'0 0.0
2017-Dec-12 09:29N 45°38' E 013°46'2 3.9
2017-Dec-12 09:00N 45°38' E 013°44'2 3.3
2017-Dec-12 08:30N 45°40' E 013°43'0 0.0
2017-Dec-12 08:00N 45°40' E 013°43'0 0.0
2017-Dec-12 07:30N 45°40' E 013°43'0 0.0
2017-Dec-12 07:00N 45°40' E 013°43'0 0.1
2017-Dec-12 06:30N 45°40' E 013°43'0 0.0
2017-Dec-12 06:00N 45°40' E 013°43'0 0.1
2017-Dec-12 05:30N 45°40' E 013°43'0 1.0
2017-Dec-12 05:00N 45°39' E 013°43'4 8.9
2017-Dec-12 04:30N 45°38' E 013°37'816.6
2017-Dec-12 04:00N 45°33' E 013°27'1019.8
2017-Dec-12 03:30N 45°26' E 013°17'1019.3
2017-Dec-12 03:00N 45°17' E 013°12'1121.0
2017-Dec-12 02:30N 45°07' E 013°16'1121.1
2017-Dec-12 02:00N 44°57' E 013°22'1121.2
2017-Dec-12 01:30N 44°48' E 013°30'1121.3
2017-Dec-12 01:00N 44°39' E 013°38'1121.3
2017-Dec-12 00:30N 44°30' E 013°45'1121.2
2017-Dec-12 00:00N 44°21' E 013°53'1121.3
2017-Dec-11 23:30N 44°12' E 014°02'1018.5
2017-Dec-11 22:59N 44°04' E 014°08'715.4
2017-Dec-11 22:30N 43°57' E 014°06'816.1
2017-Dec-11 22:00N 43°51' E 013°58'  

Dump ship's entire track history